sensor_id;sensor_type;location;lat;lon;timestamp;P1;durP1;ratioP1;P2;durP2;ratioP2
33266;SDS011;19638;49.080;11.896;2022-07-23T00:03:25;16.40;;;10.40;;
33266;SDS011;19638;49.080;11.896;2022-07-23T00:07:28;13.93;;;10.63;;
33266;SDS011;19638;49.080;11.896;2022-07-23T00:11:33;15.32;;;10.27;;
33266;SDS011;19638;49.080;11.896;2022-07-23T00:15:36;16.48;;;11.65;;
33266;SDS011;19638;49.080;11.896;2022-07-23T00:19:39;13.32;;;10.75;;
33266;SDS011;19638;49.080;11.896;2022-07-23T00:23:43;11.85;;;10.23;;
33266;SDS011;19638;49.080;11.896;2022-07-23T00:27:47;13.70;;;11.30;;
33266;SDS011;19638;49.080;11.896;2022-07-23T00:31:50;20.13;;;11.68;;
33266;SDS011;19638;49.080;11.896;2022-07-23T00:35:53;16.08;;;10.60;;
33266;SDS011;19638;49.080;11.896;2022-07-23T00:39:57;17.65;;;11.80;;
33266;SDS011;19638;49.080;11.896;2022-07-23T00:44:15;13.95;;;10.43;;
33266;SDS011;19638;49.080;11.896;2022-07-23T00:48:21;14.27;;;10.98;;
33266;SDS011;19638;49.080;11.896;2022-07-23T00:52:24;13.02;;;10.68;;
33266;SDS011;19638;49.080;11.896;2022-07-23T00:56:27;16.25;;;11.23;;
33266;SDS011;19638;49.080;11.896;2022-07-23T01:00:33;13.05;;;10.85;;
33266;SDS011;19638;49.080;11.896;2022-07-23T01:04:37;13.60;;;9.85;;
33266;SDS011;19638;49.080;11.896;2022-07-23T01:08:40;10.98;;;9.57;;
33266;SDS011;19638;49.080;11.896;2022-07-23T01:12:45;12.65;;;9.55;;
33266;SDS011;19638;49.080;11.896;2022-07-23T01:16:49;13.20;;;9.13;;
33266;SDS011;19638;49.080;11.896;2022-07-23T01:20:53;12.05;;;9.02;;
33266;SDS011;19638;49.080;11.896;2022-07-23T01:24:57;10.80;;;8.02;;
33266;SDS011;19638;49.080;11.896;2022-07-23T01:29:00;15.15;;;8.48;;
33266;SDS011;19638;49.080;11.896;2022-07-23T01:33:04;11.35;;;8.68;;
33266;SDS011;19638;49.080;11.896;2022-07-23T01:37:08;13.68;;;8.82;;
33266;SDS011;19638;49.080;11.896;2022-07-23T01:41:12;13.35;;;9.27;;
33266;SDS011;19638;49.080;11.896;2022-07-23T01:45:16;12.65;;;9.60;;
33266;SDS011;19638;49.080;11.896;2022-07-23T01:49:19;10.50;;;9.13;;
33266;SDS011;19638;49.080;11.896;2022-07-23T01:53:22;16.55;;;8.02;;
33266;SDS011;19638;49.080;11.896;2022-07-23T01:57:27;15.43;;;10.00;;
33266;SDS011;19638;49.080;11.896;2022-07-23T02:01:30;15.07;;;9.95;;
33266;SDS011;19638;49.080;11.896;2022-07-23T02:05:33;13.10;;;10.50;;
33266;SDS011;19638;49.080;11.896;2022-07-23T02:09:36;16.30;;;9.93;;
33266;SDS011;19638;49.080;11.896;2022-07-23T02:13:41;20.35;;;11.52;;
33266;SDS011;19638;49.080;11.896;2022-07-23T02:17:44;13.68;;;10.32;;
33266;SDS011;19638;49.080;11.896;2022-07-23T02:21:47;14.52;;;11.20;;
33266;SDS011;19638;49.080;11.896;2022-07-23T02:25:51;14.95;;;10.75;;
33266;SDS011;19638;49.080;11.896;2022-07-23T02:29:55;14.45;;;10.32;;
33266;SDS011;19638;49.080;11.896;2022-07-23T02:33:59;15.55;;;10.93;;
33266;SDS011;19638;49.080;11.896;2022-07-23T02:38:02;18.48;;;12.52;;
33266;SDS011;19638;49.080;11.896;2022-07-23T02:42:06;20.83;;;12.05;;
33266;SDS011;19638;49.080;11.896;2022-07-23T02:46:10;15.60;;;11.25;;
33266;SDS011;19638;49.080;11.896;2022-07-23T02:50:14;16.65;;;11.25;;
33266;SDS011;19638;49.080;11.896;2022-07-23T02:54:17;28.00;;;11.48;;
33266;SDS011;19638;49.080;11.896;2022-07-23T02:58:21;12.82;;;9.48;;
33266;SDS011;19638;49.080;11.896;2022-07-23T03:02:25;14.85;;;10.38;;
33266;SDS011;19638;49.080;11.896;2022-07-23T03:06:32;16.27;;;9.20;;
33266;SDS011;19638;49.080;11.896;2022-07-23T03:10:35;12.85;;;9.50;;
33266;SDS011;19638;49.080;11.896;2022-07-23T03:14:39;15.40;;;10.05;;
33266;SDS011;19638;49.080;11.896;2022-07-23T03:18:44;14.77;;;10.48;;
33266;SDS011;19638;49.080;11.896;2022-07-23T03:22:48;14.75;;;9.23;;
33266;SDS011;19638;49.080;11.896;2022-07-23T03:26:51;15.43;;;9.38;;
33266;SDS011;19638;49.080;11.896;2022-07-23T03:30:54;10.50;;;8.23;;
33266;SDS011;19638;49.080;11.896;2022-07-23T03:34:59;14.68;;;8.32;;
33266;SDS011;19638;49.080;11.896;2022-07-23T03:39:02;9.70;;;7.53;;
33266;SDS011;19638;49.080;11.896;2022-07-23T03:43:06;12.15;;;8.32;;
33266;SDS011;19638;49.080;11.896;2022-07-23T03:47:09;9.88;;;8.00;;
33266;SDS011;19638;49.080;11.896;2022-07-23T03:51:14;16.70;;;8.07;;
33266;SDS011;19638;49.080;11.896;2022-07-23T03:55:17;9.85;;;7.53;;
33266;SDS011;19638;49.080;11.896;2022-07-23T03:59:20;8.77;;;6.45;;
33266;SDS011;19638;49.080;11.896;2022-07-23T04:03:24;9.65;;;7.75;;
33266;SDS011;19638;49.080;11.896;2022-07-23T04:07:29;11.23;;;7.07;;
33266;SDS011;19638;49.080;11.896;2022-07-23T04:11:32;9.20;;;6.60;;
33266;SDS011;19638;49.080;11.896;2022-07-23T04:15:36;10.85;;;5.95;;
33266;SDS011;19638;49.080;11.896;2022-07-23T04:19:39;6.93;;;5.93;;
33266;SDS011;19638;49.080;11.896;2022-07-23T04:23:47;7.30;;;5.80;;
33266;SDS011;19638;49.080;11.896;2022-07-23T04:27:50;7.40;;;6.38;;
33266;SDS011;19638;49.080;11.896;2022-07-23T04:31:54;7.28;;;5.90;;
33266;SDS011;19638;49.080;11.896;2022-07-23T04:35:57;8.82;;;7.05;;
33266;SDS011;19638;49.080;11.896;2022-07-23T04:40:09;6.95;;;6.13;;
33266;SDS011;19638;49.080;11.896;2022-07-23T04:44:27;7.95;;;5.68;;
33266;SDS011;19638;49.080;11.896;2022-07-23T04:48:30;6.25;;;5.65;;
33266;SDS011;19638;49.080;11.896;2022-07-23T04:52:34;8.93;;;5.28;;
33266;SDS011;19638;49.080;11.896;2022-07-23T04:56:38;5.20;;;4.47;;
33266;SDS011;19638;49.080;11.896;2022-07-23T05:00:42;5.05;;;4.55;;
33266;SDS011;19638;49.080;11.896;2022-07-23T05:04:45;7.70;;;5.00;;
33266;SDS011;19638;49.080;11.896;2022-07-23T05:08:48;4.85;;;4.45;;
33266;SDS011;19638;49.080;11.896;2022-07-23T05:12:53;8.65;;;4.80;;
33266;SDS011;19638;49.080;11.896;2022-07-23T05:16:56;5.15;;;4.30;;
33266;SDS011;19638;49.080;11.896;2022-07-23T05:21:00;7.00;;;4.35;;
33266;SDS011;19638;49.080;11.896;2022-07-23T05:25:03;8.07;;;4.45;;
33266;SDS011;19638;49.080;11.896;2022-07-23T05:29:08;5.05;;;4.55;;
33266;SDS011;19638;49.080;11.896;2022-07-23T05:33:12;8.80;;;3.65;;
33266;SDS011;19638;49.080;11.896;2022-07-23T05:37:15;8.43;;;4.50;;
33266;SDS011;19638;49.080;11.896;2022-07-23T05:41:18;9.00;;;4.30;;
33266;SDS011;19638;49.080;11.896;2022-07-23T05:45:23;5.28;;;3.75;;
33266;SDS011;19638;49.080;11.896;2022-07-23T05:49:26;4.95;;;3.53;;
33266;SDS011;19638;49.080;11.896;2022-07-23T05:53:31;6.00;;;3.85;;
33266;SDS011;19638;49.080;11.896;2022-07-23T05:57:34;5.70;;;3.60;;
33266;SDS011;19638;49.080;11.896;2022-07-23T06:01:39;6.72;;;3.58;;
33266;SDS011;19638;49.080;11.896;2022-07-23T06:05:43;8.23;;;3.85;;
33266;SDS011;19638;49.080;11.896;2022-07-23T06:09:46;6.70;;;3.67;;
33266;SDS011;19638;49.080;11.896;2022-07-23T06:13:50;4.50;;;2.95;;
33266;SDS011;19638;49.080;11.896;2022-07-23T06:17:55;3.28;;;3.08;;
33266;SDS011;19638;49.080;11.896;2022-07-23T06:21:58;4.43;;;3.50;;
33266;SDS011;19638;49.080;11.896;2022-07-23T06:26:02;3.58;;;3.25;;
33266;SDS011;19638;49.080;11.896;2022-07-23T06:30:06;3.38;;;3.13;;
33266;SDS011;19638;49.080;11.896;2022-07-23T06:34:11;5.75;;;3.35;;
33266;SDS011;19638;49.080;11.896;2022-07-23T06:38:14;4.35;;;3.92;;
33266;SDS011;19638;49.080;11.896;2022-07-23T06:42:19;3.65;;;3.35;;
33266;SDS011;19638;49.080;11.896;2022-07-23T06:46:23;4.22;;;3.63;;
33266;SDS011;19638;49.080;11.896;2022-07-23T06:50:28;4.15;;;3.80;;
33266;SDS011;19638;49.080;11.896;2022-07-23T06:54:31;4.55;;;4.15;;
33266;SDS011;19638;49.080;11.896;2022-07-23T06:58:34;3.50;;;3.30;;
33266;SDS011;19638;49.080;11.896;2022-07-23T07:02:37;5.22;;;3.65;;
33266;SDS011;19638;49.080;11.896;2022-07-23T07:06:42;4.10;;;3.80;;
33266;SDS011;19638;49.080;11.896;2022-07-23T07:10:45;5.43;;;3.72;;
33266;SDS011;19638;49.080;11.896;2022-07-23T07:14:49;3.83;;;3.53;;
33266;SDS011;19638;49.080;11.896;2022-07-23T07:18:52;4.32;;;3.90;;
33266;SDS011;19638;49.080;11.896;2022-07-23T07:22:56;4.13;;;3.72;;
33266;SDS011;19638;49.080;11.896;2022-07-23T07:27:00;3.80;;;3.50;;
33266;SDS011;19638;49.080;11.896;2022-07-23T07:31:03;4.10;;;3.80;;
33266;SDS011;19638;49.080;11.896;2022-07-23T07:35:07;7.63;;;3.50;;
33266;SDS011;19638;49.080;11.896;2022-07-23T07:39:12;3.65;;;3.28;;
33266;SDS011;19638;49.080;11.896;2022-07-23T07:43:15;3.58;;;3.38;;
33266;SDS011;19638;49.080;11.896;2022-07-23T07:47:19;3.47;;;3.17;;
33266;SDS011;19638;49.080;11.896;2022-07-23T07:51:22;5.97;;;3.65;;
33266;SDS011;19638;49.080;11.896;2022-07-23T07:55:27;3.67;;;3.20;;
33266;SDS011;19638;49.080;11.896;2022-07-23T07:59:30;3.90;;;3.60;;
33266;SDS011;19638;49.080;11.896;2022-07-23T08:03:34;3.85;;;3.55;;
33266;SDS011;19638;49.080;11.896;2022-07-23T08:07:38;3.78;;;3.47;;
33266;SDS011;19638;49.080;11.896;2022-07-23T08:11:43;3.75;;;3.45;;
33266;SDS011;19638;49.080;11.896;2022-07-23T08:15:46;4.20;;;3.08;;
33266;SDS011;19638;49.080;11.896;2022-07-23T08:19:49;6.78;;;3.78;;
33266;SDS011;19638;49.080;11.896;2022-07-23T08:23:53;3.53;;;3.22;;
33266;SDS011;19638;49.080;11.896;2022-07-23T08:27:57;4.65;;;3.50;;
33266;SDS011;19638;49.080;11.896;2022-07-23T08:32:03;5.25;;;3.60;;
33266;SDS011;19638;49.080;11.896;2022-07-23T08:36:27;4.00;;;3.63;;
33266;SDS011;19638;49.080;11.896;2022-07-23T08:40:34;4.75;;;3.80;;
33266;SDS011;19638;49.080;11.896;2022-07-23T08:44:45;3.92;;;3.70;;
33266;SDS011;19638;49.080;11.896;2022-07-23T08:48:49;3.88;;;3.58;;
33266;SDS011;19638;49.080;11.896;2022-07-23T08:52:53;4.10;;;3.70;;
33266;SDS011;19638;49.080;11.896;2022-07-23T08:56:58;4.25;;;3.85;;
33266;SDS011;19638;49.080;11.896;2022-07-23T09:01:02;3.90;;;3.60;;
33266;SDS011;19638;49.080;11.896;2022-07-23T09:05:06;4.55;;;3.60;;
33266;SDS011;19638;49.080;11.896;2022-07-23T09:09:17;3.90;;;3.60;;
33266;SDS011;19638;49.080;11.896;2022-07-23T09:13:22;4.32;;;4.03;;
33266;SDS011;19638;49.080;11.896;2022-07-23T09:17:37;4.05;;;3.70;;
33266;SDS011;19638;49.080;11.896;2022-07-23T09:21:42;4.45;;;3.92;;
33266;SDS011;19638;49.080;11.896;2022-07-23T09:25:45;3.88;;;3.67;;
33266;SDS011;19638;49.080;11.896;2022-07-23T09:29:54;3.70;;;3.40;;
33266;SDS011;19638;49.080;11.896;2022-07-23T09:34:10;5.80;;;3.65;;
33266;SDS011;19638;49.080;11.896;2022-07-23T09:38:15;4.93;;;4.03;;
33266;SDS011;19638;49.080;11.896;2022-07-23T09:42:20;6.70;;;3.92;;
33266;SDS011;19638;49.080;11.896;2022-07-23T09:46:27;4.78;;;4.38;;
33266;SDS011;19638;49.080;11.896;2022-07-23T09:50:32;4.75;;;4.32;;
33266;SDS011;19638;49.080;11.896;2022-07-23T09:54:35;9.63;;;3.60;;
33266;SDS011;19638;49.080;11.896;2022-07-23T09:58:40;4.45;;;4.05;;
33266;SDS011;19638;49.080;11.896;2022-07-23T10:02:48;4.57;;;4.13;;
33266;SDS011;19638;49.080;11.896;2022-07-23T10:06:54;3.65;;;3.35;;
33266;SDS011;19638;49.080;11.896;2022-07-23T10:10:58;4.50;;;4.10;;
33266;SDS011;19638;49.080;11.896;2022-07-23T10:15:04;4.82;;;4.35;;
33266;SDS011;19638;49.080;11.896;2022-07-23T10:19:09;5.10;;;4.60;;
33266;SDS011;19638;49.080;11.896;2022-07-23T10:23:16;13.13;;;7.55;;
33266;SDS011;19638;49.080;11.896;2022-07-23T10:27:44;6.18;;;5.55;;
33266;SDS011;19638;49.080;11.896;2022-07-23T10:32:14;7.57;;;6.28;;
33266;SDS011;19638;49.080;11.896;2022-07-23T10:36:30;5.32;;;4.78;;
33266;SDS011;19638;49.080;11.896;2022-07-23T10:40:52;5.47;;;4.95;;
33266;SDS011;19638;49.080;11.896;2022-07-23T10:44:57;6.22;;;4.88;;
33266;SDS011;19638;49.080;11.896;2022-07-23T10:53:39;8.63;;;6.22;;
33266;SDS011;19638;49.080;11.896;2022-07-23T10:57:57;6.90;;;6.20;;
33266;SDS011;19638;49.080;11.896;2022-07-23T11:06:30;8.55;;;5.93;;
33266;SDS011;19638;49.080;11.896;2022-07-23T11:11:10;7.20;;;5.57;;
33266;SDS011;19638;49.080;11.896;2022-07-23T11:15:15;9.20;;;5.72;;
33266;SDS011;19638;49.080;11.896;2022-07-23T11:19:19;6.20;;;5.60;;
33266;SDS011;19638;49.080;11.896;2022-07-23T11:23:22;8.32;;;5.65;;
33266;SDS011;19638;49.080;11.896;2022-07-23T11:27:36;6.03;;;5.40;;
33266;SDS011;19638;49.080;11.896;2022-07-23T11:31:51;6.72;;;5.25;;
33266;SDS011;19638;49.080;11.896;2022-07-23T11:36:02;5.68;;;5.18;;
33266;SDS011;19638;49.080;11.896;2022-07-23T11:40:07;8.35;;;5.40;;
33266;SDS011;19638;49.080;11.896;2022-07-23T11:44:23;6.07;;;5.28;;
33266;SDS011;19638;49.080;11.896;2022-07-23T11:48:29;6.75;;;5.22;;
33266;SDS011;19638;49.080;11.896;2022-07-23T11:52:41;6.68;;;5.30;;
33266;SDS011;19638;49.080;11.896;2022-07-23T11:56:54;6.35;;;4.82;;
33266;SDS011;19638;49.080;11.896;2022-07-23T12:00:58;5.68;;;5.10;;
33266;SDS011;19638;49.080;11.896;2022-07-23T12:05:03;5.95;;;4.63;;
33266;SDS011;19638;49.080;11.896;2022-07-23T12:09:07;4.93;;;4.53;;
33266;SDS011;19638;49.080;11.896;2022-07-23T12:13:14;7.10;;;4.35;;
33266;SDS011;19638;49.080;11.896;2022-07-23T12:17:19;5.53;;;5.03;;
33266;SDS011;19638;49.080;11.896;2022-07-23T12:21:25;4.78;;;4.28;;
33266;SDS011;19638;49.080;11.896;2022-07-23T12:25:29;5.40;;;4.90;;
33266;SDS011;19638;49.080;11.896;2022-07-23T12:29:34;5.53;;;4.68;;
33266;SDS011;19638;49.080;11.896;2022-07-23T12:33:38;4.43;;;4.10;;
33266;SDS011;19638;49.080;11.896;2022-07-23T12:37:45;5.30;;;4.80;;
33266;SDS011;19638;49.080;11.896;2022-07-23T12:41:53;5.13;;;4.63;;
33266;SDS011;19638;49.080;11.896;2022-07-23T12:46:02;5.25;;;4.72;;
33266;SDS011;19638;49.080;11.896;2022-07-23T12:50:06;5.05;;;4.50;;
33266;SDS011;19638;49.080;11.896;2022-07-23T12:54:10;5.05;;;4.57;;
33266;SDS011;19638;49.080;11.896;2022-07-23T12:58:14;5.28;;;4.78;;
33266;SDS011;19638;49.080;11.896;2022-07-23T13:02:20;4.90;;;4.45;;
33266;SDS011;19638;49.080;11.896;2022-07-23T13:06:24;5.05;;;4.53;;
33266;SDS011;19638;49.080;11.896;2022-07-23T13:10:29;5.85;;;5.05;;
33266;SDS011;19638;49.080;11.896;2022-07-23T13:14:32;5.32;;;4.82;;
33266;SDS011;19638;49.080;11.896;2022-07-23T13:18:36;7.82;;;5.03;;
33266;SDS011;19638;49.080;11.896;2022-07-23T13:22:40;4.95;;;4.45;;
33266;SDS011;19638;49.080;11.896;2022-07-23T13:26:44;5.30;;;4.68;;
33266;SDS011;19638;49.080;11.896;2022-07-23T13:30:51;10.07;;;4.93;;
33266;SDS011;19638;49.080;11.896;2022-07-23T13:34:55;5.07;;;4.63;;
33266;SDS011;19638;49.080;11.896;2022-07-23T13:38:58;5.57;;;4.88;;
33266;SDS011;19638;49.080;11.896;2022-07-23T13:43:03;5.15;;;4.65;;
33266;SDS011;19638;49.080;11.896;2022-07-23T13:47:08;5.70;;;4.93;;
33266;SDS011;19638;49.080;11.896;2022-07-23T13:51:11;6.60;;;4.78;;
33266;SDS011;19638;49.080;11.896;2022-07-23T13:55:15;4.80;;;4.45;;
33266;SDS011;19638;49.080;11.896;2022-07-23T13:59:20;6.30;;;4.68;;
33266;SDS011;19638;49.080;11.896;2022-07-23T14:03:28;5.45;;;5.05;;
33266;SDS011;19638;49.080;11.896;2022-07-23T14:07:32;7.63;;;5.05;;
33266;SDS011;19638;49.080;11.896;2022-07-23T14:11:35;6.13;;;4.50;;
33266;SDS011;19638;49.080;11.896;2022-07-23T14:15:41;4.72;;;4.32;;
33266;SDS011;19638;49.080;11.896;2022-07-23T14:19:44;4.72;;;4.32;;
33266;SDS011;19638;49.080;11.896;2022-07-23T14:23:49;4.65;;;4.25;;
33266;SDS011;19638;49.080;11.896;2022-07-23T14:27:52;4.93;;;4.53;;
33266;SDS011;19638;49.080;11.896;2022-07-23T14:31:57;11.02;;;4.68;;
33266;SDS011;19638;49.080;11.896;2022-07-23T14:36:00;4.47;;;4.05;;
33266;SDS011;19638;49.080;11.896;2022-07-23T14:40:04;9.60;;;4.28;;
33266;SDS011;19638;49.080;11.896;2022-07-23T14:44:09;4.50;;;4.10;;
33266;SDS011;19638;49.080;11.896;2022-07-23T14:48:14;5.00;;;4.50;;
33266;SDS011;19638;49.080;11.896;2022-07-23T14:52:18;4.78;;;4.38;;
33266;SDS011;19638;49.080;11.896;2022-07-23T14:56:21;4.63;;;4.22;;
33266;SDS011;19638;49.080;11.896;2022-07-23T15:00:25;4.82;;;4.43;;
33266;SDS011;19638;49.080;11.896;2022-07-23T15:04:30;4.63;;;4.22;;
33266;SDS011;19638;49.080;11.896;2022-07-23T15:08:39;5.25;;;4.03;;
33266;SDS011;19638;49.080;11.896;2022-07-23T15:12:42;5.00;;;4.30;;
33266;SDS011;19638;49.080;11.896;2022-07-23T15:16:47;6.22;;;3.80;;
33266;SDS011;19638;49.080;11.896;2022-07-23T15:20:55;4.43;;;4.07;;
33266;SDS011;19638;49.080;11.896;2022-07-23T15:25:00;4.53;;;4.22;;
33266;SDS011;19638;49.080;11.896;2022-07-23T15:29:03;4.60;;;4.20;;
33266;SDS011;19638;49.080;11.896;2022-07-23T15:33:08;4.90;;;4.47;;
33266;SDS011;19638;49.080;11.896;2022-07-23T15:37:23;4.82;;;4.32;;
33266;SDS011;19638;49.080;11.896;2022-07-23T15:41:27;7.25;;;4.45;;
33266;SDS011;19638;49.080;11.896;2022-07-23T15:45:30;4.50;;;4.05;;
33266;SDS011;19638;49.080;11.896;2022-07-23T15:49:34;4.65;;;4.25;;
33266;SDS011;19638;49.080;11.896;2022-07-23T15:53:38;4.55;;;4.15;;
33266;SDS011;19638;49.080;11.896;2022-07-23T15:57:42;4.93;;;4.50;;
33266;SDS011;19638;49.080;11.896;2022-07-23T16:01:46;4.45;;;3.95;;
33266;SDS011;19638;49.080;11.896;2022-07-23T16:05:50;4.75;;;4.25;;
33266;SDS011;19638;49.080;11.896;2022-07-23T16:09:55;4.97;;;4.10;;
33266;SDS011;19638;49.080;11.896;2022-07-23T16:13:58;4.35;;;3.95;;
33266;SDS011;19638;49.080;11.896;2022-07-23T16:18:02;4.03;;;3.72;;
33266;SDS011;19638;49.080;11.896;2022-07-23T16:22:05;6.20;;;4.50;;
33266;SDS011;19638;49.080;11.896;2022-07-23T16:26:10;4.70;;;4.30;;
33266;SDS011;19638;49.080;11.896;2022-07-23T16:30:14;4.68;;;4.28;;
33266;SDS011;19638;49.080;11.896;2022-07-23T16:34:17;4.63;;;4.22;;
33266;SDS011;19638;49.080;11.896;2022-07-23T16:38:21;4.13;;;3.83;;
33266;SDS011;19638;49.080;11.896;2022-07-23T16:42:25;5.10;;;4.20;;
33266;SDS011;19638;49.080;11.896;2022-07-23T16:46:29;4.15;;;3.85;;
33266;SDS011;19638;49.080;11.896;2022-07-23T16:50:33;5.28;;;3.80;;
33266;SDS011;19638;49.080;11.896;2022-07-23T16:54:36;4.60;;;4.20;;
33266;SDS011;19638;49.080;11.896;2022-07-23T16:58:40;4.95;;;4.47;;
33266;SDS011;19638;49.080;11.896;2022-07-23T17:02:44;4.55;;;4.15;;
33266;SDS011;19638;49.080;11.896;2022-07-23T17:06:47;5.00;;;4.57;;
33266;SDS011;19638;49.080;11.896;2022-07-23T17:10:51;5.55;;;4.57;;
33266;SDS011;19638;49.080;11.896;2022-07-23T17:14:56;5.10;;;4.60;;
33266;SDS011;19638;49.080;11.896;2022-07-23T17:19:06;4.82;;;4.40;;
33266;SDS011;19638;49.080;11.896;2022-07-23T17:23:10;4.97;;;4.47;;
33266;SDS011;19638;49.080;11.896;2022-07-23T17:27:14;5.78;;;4.88;;
33266;SDS011;19638;49.080;11.896;2022-07-23T17:31:20;8.60;;;5.20;;
33266;SDS011;19638;49.080;11.896;2022-07-23T17:35:23;8.52;;;5.30;;
33266;SDS011;19638;49.080;11.896;2022-07-23T17:39:26;7.18;;;5.68;;
33266;SDS011;19638;49.080;11.896;2022-07-23T17:43:30;8.18;;;5.90;;
33266;SDS011;19638;49.080;11.896;2022-07-23T17:47:34;6.63;;;6.03;;
33266;SDS011;19638;49.080;11.896;2022-07-23T17:51:38;7.28;;;6.22;;
33266;SDS011;19638;49.080;11.896;2022-07-23T17:55:41;8.45;;;6.20;;
33266;SDS011;19638;49.080;11.896;2022-07-23T17:59:45;10.55;;;6.28;;
33266;SDS011;19638;49.080;11.896;2022-07-23T18:03:49;9.88;;;6.15;;
33266;SDS011;19638;49.080;11.896;2022-07-23T18:07:53;6.93;;;6.03;;
33266;SDS011;19638;49.080;11.896;2022-07-23T18:11:57;6.93;;;6.22;;
33266;SDS011;19638;49.080;11.896;2022-07-23T18:16:01;7.15;;;6.32;;
33266;SDS011;19638;49.080;11.896;2022-07-23T18:20:07;9.48;;;6.50;;
33266;SDS011;19638;49.080;11.896;2022-07-23T18:24:11;8.63;;;6.70;;
33266;SDS011;19638;49.080;11.896;2022-07-23T18:28:14;9.40;;;7.00;;
33266;SDS011;19638;49.080;11.896;2022-07-23T18:32:17;8.98;;;7.05;;
33266;SDS011;19638;49.080;11.896;2022-07-23T18:36:22;10.40;;;6.95;;
33266;SDS011;19638;49.080;11.896;2022-07-23T18:40:25;7.13;;;6.30;;
33266;SDS011;19638;49.080;11.896;2022-07-23T18:44:29;9.55;;;5.78;;
33266;SDS011;19638;49.080;11.896;2022-07-23T18:48:32;8.95;;;7.07;;
33266;SDS011;19638;49.080;11.896;2022-07-23T18:52:42;7.95;;;6.80;;
33266;SDS011;19638;49.080;11.896;2022-07-23T18:56:45;7.30;;;6.57;;
33266;SDS011;19638;49.080;11.896;2022-07-23T19:00:48;9.52;;;6.60;;
33266;SDS011;19638;49.080;11.896;2022-07-23T19:04:51;8.15;;;6.72;;
33266;SDS011;19638;49.080;11.896;2022-07-23T19:08:56;12.38;;;7.20;;
33266;SDS011;19638;49.080;11.896;2022-07-23T19:13:07;10.35;;;7.00;;
33266;SDS011;19638;49.080;11.896;2022-07-23T19:17:10;11.65;;;6.50;;
33266;SDS011;19638;49.080;11.896;2022-07-23T19:21:14;10.45;;;7.35;;
33266;SDS011;19638;49.080;11.896;2022-07-23T19:25:18;9.25;;;7.43;;
33266;SDS011;19638;49.080;11.896;2022-07-23T19:29:22;9.43;;;7.28;;
33266;SDS011;19638;49.080;11.896;2022-07-23T19:33:25;10.45;;;7.20;;
33266;SDS011;19638;49.080;11.896;2022-07-23T19:37:28;9.50;;;7.13;;
33266;SDS011;19638;49.080;11.896;2022-07-23T19:41:33;9.82;;;7.47;;
33266;SDS011;19638;49.080;11.896;2022-07-23T19:45:36;10.48;;;7.97;;
33266;SDS011;19638;49.080;11.896;2022-07-23T19:49:42;12.32;;;7.47;;
33266;SDS011;19638;49.080;11.896;2022-07-23T19:53:45;9.57;;;7.68;;
33266;SDS011;19638;49.080;11.896;2022-07-23T19:57:52;9.88;;;7.60;;
33266;SDS011;19638;49.080;11.896;2022-07-23T20:01:56;10.07;;;8.15;;
33266;SDS011;19638;49.080;11.896;2022-07-23T20:06:00;9.82;;;7.55;;
33266;SDS011;19638;49.080;11.896;2022-07-23T20:10:03;12.32;;;8.95;;
33266;SDS011;19638;49.080;11.896;2022-07-23T20:14:09;12.80;;;7.70;;
33266;SDS011;19638;49.080;11.896;2022-07-23T20:18:13;11.15;;;7.32;;
33266;SDS011;19638;49.080;11.896;2022-07-23T20:22:16;8.63;;;7.63;;
33266;SDS011;19638;49.080;11.896;2022-07-23T20:26:20;9.38;;;7.57;;
33266;SDS011;19638;49.080;11.896;2022-07-23T20:30:25;11.60;;;7.65;;
33266;SDS011;19638;49.080;11.896;2022-07-23T20:34:28;10.13;;;7.32;;
33266;SDS011;19638;49.080;11.896;2022-07-23T20:38:31;10.27;;;7.65;;
33266;SDS011;19638;49.080;11.896;2022-07-23T20:42:35;11.95;;;8.55;;
33266;SDS011;19638;49.080;11.896;2022-07-23T20:46:40;16.10;;;7.90;;
33266;SDS011;19638;49.080;11.896;2022-07-23T20:50:43;16.92;;;8.77;;
33266;SDS011;19638;49.080;11.896;2022-07-23T20:54:47;9.40;;;8.40;;
33266;SDS011;19638;49.080;11.896;2022-07-23T20:58:50;11.05;;;8.10;;
33266;SDS011;19638;49.080;11.896;2022-07-23T21:02:55;13.48;;;8.50;;
33266;SDS011;19638;49.080;11.896;2022-07-23T21:06:59;10.88;;;8.32;;
33266;SDS011;19638;49.080;11.896;2022-07-23T21:11:02;14.80;;;8.80;;
33266;SDS011;19638;49.080;11.896;2022-07-23T21:15:06;8.38;;;7.57;;
33266;SDS011;19638;49.080;11.896;2022-07-23T21:19:11;11.35;;;8.57;;
33266;SDS011;19638;49.080;11.896;2022-07-23T21:23:15;11.77;;;9.10;;
33266;SDS011;19638;49.080;11.896;2022-07-23T21:27:18;11.65;;;8.90;;
33266;SDS011;19638;49.080;11.896;2022-07-23T21:31:21;12.20;;;9.13;;
33266;SDS011;19638;49.080;11.896;2022-07-23T21:35:26;11.02;;;8.10;;
33266;SDS011;19638;49.080;11.896;2022-07-23T21:39:29;11.32;;;9.00;;
33266;SDS011;19638;49.080;11.896;2022-07-23T21:43:33;13.82;;;9.23;;
33266;SDS011;19638;49.080;11.896;2022-07-23T21:47:36;10.23;;;8.00;;
33266;SDS011;19638;49.080;11.896;2022-07-23T21:51:40;9.50;;;7.93;;
33266;SDS011;19638;49.080;11.896;2022-07-23T21:55:46;8.77;;;7.72;;
33266;SDS011;19638;49.080;11.896;2022-07-23T21:59:50;9.52;;;8.25;;
33266;SDS011;19638;49.080;11.896;2022-07-23T22:03:53;9.75;;;8.15;;
33266;SDS011;19638;49.080;11.896;2022-07-23T22:07:58;12.70;;;8.10;;
33266;SDS011;19638;49.080;11.896;2022-07-23T22:12:02;13.60;;;8.20;;
33266;SDS011;19638;49.080;11.896;2022-07-23T22:16:05;13.52;;;8.48;;
33266;SDS011;19638;49.080;11.896;2022-07-23T22:20:09;11.75;;;8.15;;
33266;SDS011;19638;49.080;11.896;2022-07-23T22:24:15;9.55;;;7.78;;
33266;SDS011;19638;49.080;11.896;2022-07-23T22:28:19;10.25;;;7.93;;
33266;SDS011;19638;49.080;11.896;2022-07-23T22:32:22;11.38;;;8.93;;
33266;SDS011;19638;49.080;11.896;2022-07-23T22:36:26;10.68;;;8.43;;
33266;SDS011;19638;49.080;11.896;2022-07-23T22:40:30;11.70;;;8.07;;
33266;SDS011;19638;49.080;11.896;2022-07-23T22:44:33;12.77;;;8.68;;
33266;SDS011;19638;49.080;11.896;2022-07-23T22:48:37;11.10;;;9.00;;
33266;SDS011;19638;49.080;11.896;2022-07-23T22:52:40;10.93;;;9.45;;
33266;SDS011;19638;49.080;11.896;2022-07-23T22:56:45;13.10;;;9.60;;
33266;SDS011;19638;49.080;11.896;2022-07-23T23:00:48;11.13;;;8.48;;
33266;SDS011;19638;49.080;11.896;2022-07-23T23:04:51;14.65;;;9.80;;
33266;SDS011;19638;49.080;11.896;2022-07-23T23:08:55;12.15;;;9.93;;
33266;SDS011;19638;49.080;11.896;2022-07-23T23:12:59;13.20;;;9.57;;
33266;SDS011;19638;49.080;11.896;2022-07-23T23:17:03;13.40;;;9.57;;
33266;SDS011;19638;49.080;11.896;2022-07-23T23:21:06;11.88;;;9.55;;
33266;SDS011;19638;49.080;11.896;2022-07-23T23:25:09;15.88;;;10.32;;
33266;SDS011;19638;49.080;11.896;2022-07-23T23:29:13;15.77;;;9.75;;
33266;SDS011;19638;49.080;11.896;2022-07-23T23:33:17;24.63;;;10.65;;
33266;SDS011;19638;49.080;11.896;2022-07-23T23:37:20;11.18;;;9.50;;
33266;SDS011;19638;49.080;11.896;2022-07-23T23:41:23;12.32;;;9.35;;
33266;SDS011;19638;49.080;11.896;2022-07-23T23:45:29;13.00;;;10.50;;
33266;SDS011;19638;49.080;11.896;2022-07-23T23:49:32;14.98;;;10.50;;
33266;SDS011;19638;49.080;11.896;2022-07-23T23:53:35;12.85;;;10.40;;
33266;SDS011;19638;49.080;11.896;2022-07-23T23:57:38;17.75;;;11.45;;
